sensor_id;sensor_type;location;lat;lon;timestamp;P1;durP1;ratioP1;P2;durP2;ratioP2
56537;SDS011;42435;53.292;6.000;2023-02-07T00:00:15;20.60;;;10.48;;
56537;SDS011;42435;53.292;6.000;2023-02-07T00:02:44;21.48;;;10.85;;
56537;SDS011;42435;53.292;6.000;2023-02-07T00:05:12;19.63;;;10.65;;
56537;SDS011;42435;53.292;6.000;2023-02-07T00:07:38;21.27;;;11.32;;
56537;SDS011;42435;53.292;6.000;2023-02-07T00:10:04;23.75;;;10.98;;
56537;SDS011;42435;53.292;6.000;2023-02-07T00:12:30;25.70;;;11.25;;
56537;SDS011;42435;53.292;6.000;2023-02-07T00:14:57;22.30;;;11.20;;
56537;SDS011;42435;53.292;6.000;2023-02-07T00:17:23;22.67;;;9.75;;
56537;SDS011;42435;53.292;6.000;2023-02-07T00:19:49;25.52;;;10.63;;
56537;SDS011;42435;53.292;6.000;2023-02-07T00:22:14;20.38;;;10.85;;
56537;SDS011;42435;53.292;6.000;2023-02-07T00:24:41;21.17;;;10.90;;
56537;SDS011;42435;53.292;6.000;2023-02-07T00:27:06;27.48;;;12.63;;
56537;SDS011;42435;53.292;6.000;2023-02-07T00:29:32;29.38;;;11.73;;
56537;SDS011;42435;53.292;6.000;2023-02-07T00:31:58;25.17;;;11.23;;
56537;SDS011;42435;53.292;6.000;2023-02-07T00:34:26;31.83;;;11.90;;
56537;SDS011;42435;53.292;6.000;2023-02-07T00:36:51;21.85;;;11.40;;
56537;SDS011;42435;53.292;6.000;2023-02-07T00:39:17;24.50;;;13.13;;
56537;SDS011;42435;53.292;6.000;2023-02-07T00:41:43;20.58;;;9.57;;
56537;SDS011;42435;53.292;6.000;2023-02-07T00:44:09;22.85;;;10.60;;
56537;SDS011;42435;53.292;6.000;2023-02-07T00:46:36;25.42;;;12.00;;
56537;SDS011;42435;53.292;6.000;2023-02-07T00:49:02;26.38;;;12.27;;
56537;SDS011;42435;53.292;6.000;2023-02-07T00:51:28;34.92;;;13.05;;
56537;SDS011;42435;53.292;6.000;2023-02-07T00:53:55;25.42;;;12.63;;
56537;SDS011;42435;53.292;6.000;2023-02-07T00:56:22;27.83;;;11.98;;
56537;SDS011;42435;53.292;6.000;2023-02-07T00:58:48;31.38;;;14.75;;
56537;SDS011;42435;53.292;6.000;2023-02-07T01:01:14;29.52;;;12.93;;
56537;SDS011;42435;53.292;6.000;2023-02-07T01:03:41;28.13;;;14.70;;
56537;SDS011;42435;53.292;6.000;2023-02-07T01:06:07;33.60;;;14.77;;
56537;SDS011;42435;53.292;6.000;2023-02-07T01:08:33;31.80;;;15.70;;
56537;SDS011;42435;53.292;6.000;2023-02-07T01:11:03;33.70;;;14.10;;
56537;SDS011;42435;53.292;6.000;2023-02-07T01:13:31;28.30;;;13.90;;
56537;SDS011;42435;53.292;6.000;2023-02-07T01:15:56;28.48;;;13.30;;
56537;SDS011;42435;53.292;6.000;2023-02-07T01:18:22;35.03;;;13.65;;
56537;SDS011;42435;53.292;6.000;2023-02-07T01:20:47;34.03;;;14.15;;
56537;SDS011;42435;53.292;6.000;2023-02-07T01:23:13;33.97;;;15.13;;
56537;SDS011;42435;53.292;6.000;2023-02-07T01:25:39;37.85;;;14.38;;
56537;SDS011;42435;53.292;6.000;2023-02-07T01:28:08;31.52;;;13.38;;
56537;SDS011;42435;53.292;6.000;2023-02-07T01:30:34;36.42;;;14.50;;
56537;SDS011;42435;53.292;6.000;2023-02-07T01:33:03;27.40;;;13.13;;
56537;SDS011;42435;53.292;6.000;2023-02-07T01:35:29;34.97;;;13.00;;
56537;SDS011;42435;53.292;6.000;2023-02-07T01:37:54;36.40;;;13.13;;
56537;SDS011;42435;53.292;6.000;2023-02-07T01:40:22;38.92;;;12.70;;
56537;SDS011;42435;53.292;6.000;2023-02-07T01:42:47;27.48;;;12.82;;
56537;SDS011;42435;53.292;6.000;2023-02-07T01:48:02;27.50;;;12.38;;
56537;SDS011;42435;53.292;6.000;2023-02-07T01:50:31;31.83;;;13.20;;
56537;SDS011;42435;53.292;6.000;2023-02-07T01:52:58;35.47;;;15.20;;
56537;SDS011;42435;53.292;6.000;2023-02-07T01:55:27;31.50;;;13.32;;
56537;SDS011;42435;53.292;6.000;2023-02-07T01:57:55;38.75;;;14.82;;
56537;SDS011;42435;53.292;6.000;2023-02-07T02:00:22;30.17;;;13.82;;
56537;SDS011;42435;53.292;6.000;2023-02-07T02:02:48;38.35;;;16.17;;
56537;SDS011;42435;53.292;6.000;2023-02-07T02:05:15;42.88;;;15.50;;
56537;SDS011;42435;53.292;6.000;2023-02-07T02:07:42;39.63;;;15.85;;
56537;SDS011;42435;53.292;6.000;2023-02-07T02:10:15;29.67;;;14.20;;
56537;SDS011;42435;53.292;6.000;2023-02-07T02:12:50;32.15;;;13.95;;
56537;SDS011;42435;53.292;6.000;2023-02-07T02:15:39;33.25;;;15.18;;
56537;SDS011;42435;53.292;6.000;2023-02-07T02:24:04;37.30;;;15.45;;
56537;SDS011;42435;53.292;6.000;2023-02-07T02:29:35;44.15;;;17.27;;
56537;SDS011;42435;53.292;6.000;2023-02-07T02:35:26;38.15;;;16.00;;
56537;SDS011;42435;53.292;6.000;2023-02-07T02:38:01;37.97;;;16.42;;
56537;SDS011;42435;53.292;6.000;2023-02-07T02:41:06;42.50;;;16.05;;
56537;SDS011;42435;53.292;6.000;2023-02-07T02:43:39;36.08;;;16.00;;
56537;SDS011;42435;53.292;6.000;2023-02-07T02:46:22;38.20;;;17.27;;
56537;SDS011;42435;53.292;6.000;2023-02-07T02:48:52;35.78;;;17.80;;
56537;SDS011;42435;53.292;6.000;2023-02-07T02:51:20;32.25;;;14.70;;
56537;SDS011;42435;53.292;6.000;2023-02-07T02:53:52;37.97;;;16.30;;
56537;SDS011;42435;53.292;6.000;2023-02-07T03:09:26;35.53;;;15.98;;
56537;SDS011;42435;53.292;6.000;2023-02-07T03:17:50;42.28;;;16.63;;
56537;SDS011;42435;53.292;6.000;2023-02-07T03:20:27;42.05;;;17.00;;
56537;SDS011;42435;53.292;6.000;2023-02-07T03:22:56;51.22;;;18.63;;
56537;SDS011;42435;53.292;6.000;2023-02-07T03:25:24;42.17;;;18.52;;
56537;SDS011;42435;53.292;6.000;2023-02-07T03:27:52;45.45;;;18.45;;
56537;SDS011;42435;53.292;6.000;2023-02-07T03:30:19;47.63;;;20.67;;
56537;SDS011;42435;53.292;6.000;2023-02-07T03:32:48;41.72;;;18.75;;
56537;SDS011;42435;53.292;6.000;2023-02-07T03:35:20;45.58;;;19.45;;
56537;SDS011;42435;53.292;6.000;2023-02-07T03:37:53;46.53;;;19.85;;
56537;SDS011;42435;53.292;6.000;2023-02-07T03:40:25;50.33;;;19.98;;
56537;SDS011;42435;53.292;6.000;2023-02-07T03:43:26;39.75;;;18.20;;
56537;SDS011;42435;53.292;6.000;2023-02-07T03:45:49;46.67;;;19.45;;
56537;SDS011;42435;53.292;6.000;2023-02-07T03:48:14;50.10;;;18.60;;
56537;SDS011;42435;53.292;6.000;2023-02-07T03:50:40;45.20;;;18.77;;
56537;SDS011;42435;53.292;6.000;2023-02-07T03:53:06;37.40;;;17.88;;
56537;SDS011;42435;53.292;6.000;2023-02-07T03:55:32;49.33;;;22.35;;
56537;SDS011;42435;53.292;6.000;2023-02-07T03:57:58;45.00;;;19.27;;
56537;SDS011;42435;53.292;6.000;2023-02-07T04:00:24;41.42;;;19.38;;
56537;SDS011;42435;53.292;6.000;2023-02-07T04:02:49;45.97;;;20.58;;
56537;SDS011;42435;53.292;6.000;2023-02-07T04:05:15;49.38;;;22.02;;
56537;SDS011;42435;53.292;6.000;2023-02-07T04:07:41;46.63;;;20.05;;
56537;SDS011;42435;53.292;6.000;2023-02-07T04:10:08;45.17;;;18.65;;
56537;SDS011;42435;53.292;6.000;2023-02-07T04:12:34;46.50;;;21.38;;
56537;SDS011;42435;53.292;6.000;2023-02-07T04:15:00;56.53;;;21.90;;
56537;SDS011;42435;53.292;6.000;2023-02-07T04:17:26;54.67;;;23.08;;
56537;SDS011;42435;53.292;6.000;2023-02-07T04:19:52;47.25;;;20.40;;
56537;SDS011;42435;53.292;6.000;2023-02-07T04:22:18;54.38;;;22.88;;
56537;SDS011;42435;53.292;6.000;2023-02-07T04:24:44;47.97;;;20.20;;
56537;SDS011;42435;53.292;6.000;2023-02-07T04:27:10;56.80;;;22.25;;
56537;SDS011;42435;53.292;6.000;2023-02-07T04:29:39;58.17;;;24.55;;
56537;SDS011;42435;53.292;6.000;2023-02-07T04:32:06;53.30;;;21.02;;
56537;SDS011;42435;53.292;6.000;2023-02-07T04:34:31;60.45;;;22.75;;
56537;SDS011;42435;53.292;6.000;2023-02-07T04:36:57;47.03;;;21.23;;
56537;SDS011;42435;53.292;6.000;2023-02-07T04:39:22;49.72;;;20.65;;
56537;SDS011;42435;53.292;6.000;2023-02-07T04:41:48;52.22;;;21.38;;
56537;SDS011;42435;53.292;6.000;2023-02-07T04:44:14;51.45;;;20.75;;
56537;SDS011;42435;53.292;6.000;2023-02-07T04:46:39;48.42;;;19.48;;
56537;SDS011;42435;53.292;6.000;2023-02-07T04:49:06;52.03;;;20.60;;
56537;SDS011;42435;53.292;6.000;2023-02-07T04:51:31;51.13;;;21.50;;
56537;SDS011;42435;53.292;6.000;2023-02-07T04:53:57;54.67;;;22.42;;
56537;SDS011;42435;53.292;6.000;2023-02-07T04:56:23;46.20;;;20.55;;
56537;SDS011;42435;53.292;6.000;2023-02-07T04:58:49;45.47;;;21.23;;
56537;SDS011;42435;53.292;6.000;2023-02-07T05:01:14;48.55;;;20.50;;
56537;SDS011;42435;53.292;6.000;2023-02-07T05:03:41;49.78;;;20.83;;
56537;SDS011;42435;53.292;6.000;2023-02-07T05:06:06;51.00;;;21.88;;
56537;SDS011;42435;53.292;6.000;2023-02-07T05:08:32;49.10;;;21.55;;
56537;SDS011;42435;53.292;6.000;2023-02-07T05:10:59;50.10;;;20.35;;
56537;SDS011;42435;53.292;6.000;2023-02-07T05:13:24;48.75;;;20.38;;
56537;SDS011;42435;53.292;6.000;2023-02-07T05:15:50;50.28;;;20.65;;
56537;SDS011;42435;53.292;6.000;2023-02-07T05:18:16;58.45;;;22.02;;
56537;SDS011;42435;53.292;6.000;2023-02-07T05:20:42;60.30;;;23.58;;
56537;SDS011;42435;53.292;6.000;2023-02-07T05:23:07;57.95;;;23.25;;
56537;SDS011;42435;53.292;6.000;2023-02-07T05:25:33;46.25;;;21.83;;
56537;SDS011;42435;53.292;6.000;2023-02-07T05:27:59;50.63;;;21.80;;
56537;SDS011;42435;53.292;6.000;2023-02-07T05:30:24;47.85;;;21.33;;
56537;SDS011;42435;53.292;6.000;2023-02-07T05:32:50;59.33;;;22.52;;
56537;SDS011;42435;53.292;6.000;2023-02-07T05:35:37;46.85;;;20.38;;
56537;SDS011;42435;53.292;6.000;2023-02-07T05:38:05;47.45;;;21.83;;
56537;SDS011;42435;53.292;6.000;2023-02-07T05:40:33;54.05;;;21.23;;
56537;SDS011;42435;53.292;6.000;2023-02-07T05:42:59;48.92;;;21.98;;
56537;SDS011;42435;53.292;6.000;2023-02-07T05:45:24;47.22;;;21.13;;
56537;SDS011;42435;53.292;6.000;2023-02-07T05:47:50;46.33;;;21.38;;
56537;SDS011;42435;53.292;6.000;2023-02-07T05:50:16;41.78;;;19.70;;
56537;SDS011;42435;53.292;6.000;2023-02-07T05:52:41;49.25;;;20.95;;
56537;SDS011;42435;53.292;6.000;2023-02-07T05:55:07;42.75;;;19.85;;
56537;SDS011;42435;53.292;6.000;2023-02-07T05:57:33;43.70;;;19.92;;
56537;SDS011;42435;53.292;6.000;2023-02-07T05:59:59;44.05;;;20.02;;
56537;SDS011;42435;53.292;6.000;2023-02-07T06:02:25;35.78;;;17.80;;
56537;SDS011;42435;53.292;6.000;2023-02-07T06:04:50;43.58;;;20.35;;
56537;SDS011;42435;53.292;6.000;2023-02-07T06:07:16;41.75;;;18.77;;
56537;SDS011;42435;53.292;6.000;2023-02-07T06:09:42;37.38;;;17.98;;
56537;SDS011;42435;53.292;6.000;2023-02-07T06:12:07;40.97;;;20.88;;
56537;SDS011;42435;53.292;6.000;2023-02-07T06:14:33;43.85;;;19.77;;
56537;SDS011;42435;53.292;6.000;2023-02-07T06:16:59;42.55;;;19.27;;
56537;SDS011;42435;53.292;6.000;2023-02-07T06:19:25;40.35;;;18.75;;
56537;SDS011;42435;53.292;6.000;2023-02-07T06:21:50;43.00;;;20.73;;
56537;SDS011;42435;53.292;6.000;2023-02-07T06:24:16;37.80;;;18.48;;
56537;SDS011;42435;53.292;6.000;2023-02-07T06:26:42;35.58;;;19.45;;
56537;SDS011;42435;53.292;6.000;2023-02-07T06:29:10;35.67;;;16.85;;
56537;SDS011;42435;53.292;6.000;2023-02-07T06:31:36;43.03;;;19.85;;
56537;SDS011;42435;53.292;6.000;2023-02-07T06:34:01;39.20;;;18.83;;
56537;SDS011;42435;53.292;6.000;2023-02-07T06:36:27;40.05;;;18.00;;
56537;SDS011;42435;53.292;6.000;2023-02-07T06:38:52;37.13;;;18.52;;
56537;SDS011;42435;53.292;6.000;2023-02-07T06:41:19;36.85;;;19.05;;
56537;SDS011;42435;53.292;6.000;2023-02-07T06:43:45;41.58;;;19.65;;
56537;SDS011;42435;53.292;6.000;2023-02-07T06:46:11;43.75;;;19.02;;
56537;SDS011;42435;53.292;6.000;2023-02-07T06:48:36;39.65;;;19.55;;
56537;SDS011;42435;53.292;6.000;2023-02-07T06:51:02;38.25;;;19.10;;
56537;SDS011;42435;53.292;6.000;2023-02-07T06:53:28;35.53;;;18.60;;
56537;SDS011;42435;53.292;6.000;2023-02-07T06:55:54;44.15;;;19.60;;
56537;SDS011;42435;53.292;6.000;2023-02-07T06:58:19;39.97;;;19.38;;
56537;SDS011;42435;53.292;6.000;2023-02-07T07:00:45;43.25;;;19.75;;
56537;SDS011;42435;53.292;6.000;2023-02-07T07:03:14;67.90;;;20.23;;
56537;SDS011;42435;53.292;6.000;2023-02-07T07:05:41;40.90;;;18.40;;
56537;SDS011;42435;53.292;6.000;2023-02-07T07:08:08;39.92;;;18.85;;
56537;SDS011;42435;53.292;6.000;2023-02-07T07:10:35;40.78;;;19.40;;
56537;SDS011;42435;53.292;6.000;2023-02-07T07:13:00;41.63;;;21.00;;
56537;SDS011;42435;53.292;6.000;2023-02-07T07:15:26;39.92;;;19.45;;
56537;SDS011;42435;53.292;6.000;2023-02-07T07:17:51;44.75;;;23.55;;
56537;SDS011;42435;53.292;6.000;2023-02-07T07:20:17;41.13;;;23.75;;
56537;SDS011;42435;53.292;6.000;2023-02-07T07:22:42;44.47;;;21.02;;
56537;SDS011;42435;53.292;6.000;2023-02-07T07:25:08;47.88;;;23.85;;
56537;SDS011;42435;53.292;6.000;2023-02-07T07:27:34;47.38;;;23.30;;
56537;SDS011;42435;53.292;6.000;2023-02-07T07:29:59;50.33;;;24.65;;
56537;SDS011;42435;53.292;6.000;2023-02-07T07:32:25;61.75;;;32.95;;
56537;SDS011;42435;53.292;6.000;2023-02-07T07:34:51;47.65;;;24.60;;
56537;SDS011;42435;53.292;6.000;2023-02-07T07:37:18;53.25;;;24.77;;
56537;SDS011;42435;53.292;6.000;2023-02-07T07:39:43;43.90;;;21.88;;
56537;SDS011;42435;53.292;6.000;2023-02-07T07:42:09;46.90;;;21.30;;
56537;SDS011;42435;53.292;6.000;2023-02-07T07:44:34;48.90;;;21.52;;
56537;SDS011;42435;53.292;6.000;2023-02-07T07:47:00;54.05;;;25.20;;
56537;SDS011;42435;53.292;6.000;2023-02-07T07:49:26;41.80;;;22.75;;
56537;SDS011;42435;53.292;6.000;2023-02-07T07:51:51;46.50;;;21.95;;
56537;SDS011;42435;53.292;6.000;2023-02-07T07:54:17;46.72;;;21.23;;
56537;SDS011;42435;53.292;6.000;2023-02-07T07:56:43;43.72;;;20.83;;
56537;SDS011;42435;53.292;6.000;2023-02-07T07:59:09;43.72;;;19.95;;
56537;SDS011;42435;53.292;6.000;2023-02-07T08:01:34;41.83;;;19.50;;
56537;SDS011;42435;53.292;6.000;2023-02-07T08:04:00;41.85;;;21.30;;
56537;SDS011;42435;53.292;6.000;2023-02-07T08:06:27;48.33;;;24.10;;
56537;SDS011;42435;53.292;6.000;2023-02-07T08:08:54;48.55;;;22.08;;
56537;SDS011;42435;53.292;6.000;2023-02-07T08:11:20;43.35;;;21.30;;
56537;SDS011;42435;53.292;6.000;2023-02-07T08:13:47;40.83;;;20.20;;
56537;SDS011;42435;53.292;6.000;2023-02-07T08:16:13;49.58;;;20.00;;
56537;SDS011;42435;53.292;6.000;2023-02-07T08:18:38;43.92;;;20.30;;
56537;SDS011;42435;53.292;6.000;2023-02-07T08:21:04;47.05;;;22.80;;
56537;SDS011;42435;53.292;6.000;2023-02-07T08:23:30;44.25;;;22.27;;
56537;SDS011;42435;53.292;6.000;2023-02-07T08:25:55;43.67;;;22.00;;
56537;SDS011;42435;53.292;6.000;2023-02-07T08:28:21;70.97;;;35.75;;
56537;SDS011;42435;53.292;6.000;2023-02-07T08:30:47;76.80;;;39.60;;
56537;SDS011;42435;53.292;6.000;2023-02-07T08:33:13;69.13;;;33.60;;
56537;SDS011;42435;53.292;6.000;2023-02-07T08:35:39;65.72;;;35.55;;
56537;SDS011;42435;53.292;6.000;2023-02-07T08:38:06;57.60;;;29.30;;
56537;SDS011;42435;53.292;6.000;2023-02-07T08:40:32;51.47;;;26.02;;
56537;SDS011;42435;53.292;6.000;2023-02-07T08:42:58;50.70;;;26.20;;
56537;SDS011;42435;53.292;6.000;2023-02-07T08:45:24;50.30;;;24.25;;
56537;SDS011;42435;53.292;6.000;2023-02-07T08:47:53;49.33;;;22.73;;
56537;SDS011;42435;53.292;6.000;2023-02-07T08:50:18;49.30;;;24.85;;
56537;SDS011;42435;53.292;6.000;2023-02-07T08:52:44;40.08;;;21.20;;
56537;SDS011;42435;53.292;6.000;2023-02-07T08:55:10;46.90;;;21.83;;
56537;SDS011;42435;53.292;6.000;2023-02-07T08:57:38;37.72;;;19.55;;
56537;SDS011;42435;53.292;6.000;2023-02-07T09:00:05;38.35;;;19.63;;
56537;SDS011;42435;53.292;6.000;2023-02-07T09:02:31;34.97;;;18.55;;
56537;SDS011;42435;53.292;6.000;2023-02-07T09:04:56;34.95;;;17.58;;
56537;SDS011;42435;53.292;6.000;2023-02-07T09:07:22;32.97;;;17.75;;
56537;SDS011;42435;53.292;6.000;2023-02-07T09:09:48;32.92;;;18.67;;
56537;SDS011;42435;53.292;6.000;2023-02-07T09:12:13;30.60;;;15.88;;
56537;SDS011;42435;53.292;6.000;2023-02-07T09:14:39;32.42;;;16.88;;
56537;SDS011;42435;53.292;6.000;2023-02-07T09:17:06;32.08;;;16.35;;
56537;SDS011;42435;53.292;6.000;2023-02-07T09:19:32;30.50;;;17.17;;
56537;SDS011;42435;53.292;6.000;2023-02-07T09:21:58;30.00;;;16.25;;
56537;SDS011;42435;53.292;6.000;2023-02-07T09:24:23;32.13;;;16.77;;
56537;SDS011;42435;53.292;6.000;2023-02-07T09:26:49;33.03;;;16.83;;
56537;SDS011;42435;53.292;6.000;2023-02-07T09:29:15;30.05;;;16.58;;
56537;SDS011;42435;53.292;6.000;2023-02-07T09:31:41;27.70;;;16.48;;
56537;SDS011;42435;53.292;6.000;2023-02-07T09:34:07;25.27;;;15.88;;
56537;SDS011;42435;53.292;6.000;2023-02-07T09:36:33;33.28;;;17.33;;
56537;SDS011;42435;53.292;6.000;2023-02-07T09:39:00;26.50;;;15.90;;
56537;SDS011;42435;53.292;6.000;2023-02-07T09:44:17;28.80;;;15.88;;
56537;SDS011;42435;53.292;6.000;2023-02-07T09:52:04;27.33;;;16.27;;
56537;SDS011;42435;53.292;6.000;2023-02-07T09:54:39;29.67;;;17.33;;
56537;SDS011;42435;53.292;6.000;2023-02-07T09:59:50;29.20;;;18.35;;
56537;SDS011;42435;53.292;6.000;2023-02-07T10:02:22;35.03;;;19.02;;
56537;SDS011;42435;53.292;6.000;2023-02-07T10:05:15;31.83;;;18.02;;
56537;SDS011;42435;53.292;6.000;2023-02-07T10:07:45;31.67;;;19.25;;
56537;SDS011;42435;53.292;6.000;2023-02-07T10:10:35;29.73;;;18.27;;
56537;SDS011;42435;53.292;6.000;2023-02-07T10:21:18;34.80;;;19.03;;
56537;SDS011;42435;53.292;6.000;2023-02-07T10:24:11;29.90;;;16.80;;
56537;SDS011;42435;53.292;6.000;2023-02-07T10:27:13;28.10;;;18.45;;
56537;SDS011;42435;53.292;6.000;2023-02-07T10:29:55;30.63;;;17.95;;
56537;SDS011;42435;53.292;6.000;2023-02-07T10:32:30;33.42;;;19.30;;
56537;SDS011;42435;53.292;6.000;2023-02-07T10:35:09;28.08;;;17.42;;
56537;SDS011;42435;53.292;6.000;2023-02-07T10:37:53;29.13;;;18.02;;
56537;SDS011;42435;53.292;6.000;2023-02-07T10:40:23;32.20;;;18.50;;
56537;SDS011;42435;53.292;6.000;2023-02-07T10:43:01;28.35;;;18.27;;
56537;SDS011;42435;53.292;6.000;2023-02-07T10:47:54;32.05;;;17.38;;
56537;SDS011;42435;53.292;6.000;2023-02-07T10:50:20;32.33;;;18.00;;
56537;SDS011;42435;53.292;6.000;2023-02-07T10:52:50;28.63;;;16.58;;
56537;SDS011;42435;53.292;6.000;2023-02-07T10:55:19;34.33;;;19.05;;
56537;SDS011;42435;53.292;6.000;2023-02-07T10:57:58;36.50;;;19.13;;
56537;SDS011;42435;53.292;6.000;2023-02-07T11:00:28;30.17;;;18.40;;
56537;SDS011;42435;53.292;6.000;2023-02-07T11:03:04;30.27;;;17.55;;
56537;SDS011;42435;53.292;6.000;2023-02-07T11:05:50;28.70;;;16.73;;
56537;SDS011;42435;53.292;6.000;2023-02-07T11:08:17;31.08;;;18.23;;
56537;SDS011;42435;53.292;6.000;2023-02-07T11:10:55;27.60;;;17.02;;
56537;SDS011;42435;53.292;6.000;2023-02-07T11:13:23;29.67;;;17.75;;
56537;SDS011;42435;53.292;6.000;2023-02-07T11:21:28;29.65;;;17.02;;
56537;SDS011;42435;53.292;6.000;2023-02-07T11:23:56;27.67;;;17.42;;
56537;SDS011;42435;53.292;6.000;2023-02-07T11:26:32;29.33;;;18.13;;
56537;SDS011;42435;53.292;6.000;2023-02-07T11:29:04;30.13;;;17.63;;
56537;SDS011;42435;53.292;6.000;2023-02-07T11:31:42;28.85;;;18.42;;
56537;SDS011;42435;53.292;6.000;2023-02-07T11:37:31;33.58;;;19.35;;
56537;SDS011;42435;53.292;6.000;2023-02-07T11:40:18;32.33;;;19.35;;
56537;SDS011;42435;53.292;6.000;2023-02-07T11:43:15;33.53;;;18.90;;
56537;SDS011;42435;53.292;6.000;2023-02-07T11:45:44;29.65;;;17.73;;
56537;SDS011;42435;53.292;6.000;2023-02-07T11:48:16;30.77;;;18.13;;
56537;SDS011;42435;53.292;6.000;2023-02-07T11:50:47;26.95;;;17.58;;
56537;SDS011;42435;53.292;6.000;2023-02-07T11:53:20;31.05;;;18.15;;
56537;SDS011;42435;53.292;6.000;2023-02-07T11:55:50;31.88;;;19.77;;
56537;SDS011;42435;53.292;6.000;2023-02-07T11:58:37;24.90;;;17.20;;
56537;SDS011;42435;53.292;6.000;2023-02-07T12:01:13;36.97;;;21.88;;
56537;SDS011;42435;53.292;6.000;2023-02-07T12:03:51;29.30;;;17.45;;
56537;SDS011;42435;53.292;6.000;2023-02-07T12:06:25;26.33;;;17.27;;
56537;SDS011;42435;53.292;6.000;2023-02-07T12:09:11;29.30;;;17.98;;
56537;SDS011;42435;53.292;6.000;2023-02-07T12:11:58;26.52;;;18.23;;
56537;SDS011;42435;53.292;6.000;2023-02-07T12:14:40;29.95;;;17.65;;
56537;SDS011;42435;53.292;6.000;2023-02-07T12:17:40;25.80;;;16.70;;
56537;SDS011;42435;53.292;6.000;2023-02-07T12:20:21;26.23;;;15.68;;
56537;SDS011;42435;53.292;6.000;2023-02-07T12:22:55;24.90;;;15.85;;
56537;SDS011;42435;53.292;6.000;2023-02-07T12:25:44;24.10;;;15.95;;
56537;SDS011;42435;53.292;6.000;2023-02-07T12:28:39;27.17;;;15.32;;
56537;SDS011;42435;53.292;6.000;2023-02-07T12:31:17;25.65;;;16.45;;
56537;SDS011;42435;53.292;6.000;2023-02-07T12:33:56;22.63;;;15.88;;
56537;SDS011;42435;53.292;6.000;2023-02-07T12:36:30;27.75;;;16.05;;
56537;SDS011;42435;53.292;6.000;2023-02-07T12:39:02;27.75;;;18.25;;
56537;SDS011;42435;53.292;6.000;2023-02-07T12:41:42;27.55;;;16.95;;
56537;SDS011;42435;53.292;6.000;2023-02-07T12:53:30;25.48;;;18.17;;
56537;SDS011;42435;53.292;6.000;2023-02-07T12:56:26;28.05;;;18.08;;
56537;SDS011;42435;53.292;6.000;2023-02-07T12:59:17;23.63;;;15.43;;
56537;SDS011;42435;53.292;6.000;2023-02-07T13:01:59;27.00;;;17.88;;
56537;SDS011;42435;53.292;6.000;2023-02-07T13:07:21;25.63;;;16.77;;
56537;SDS011;42435;53.292;6.000;2023-02-07T13:10:17;25.73;;;15.20;;
56537;SDS011;42435;53.292;6.000;2023-02-07T13:12:45;24.92;;;15.85;;
56537;SDS011;42435;53.292;6.000;2023-02-07T13:15:20;25.38;;;17.38;;
56537;SDS011;42435;53.292;6.000;2023-02-07T13:23:49;26.50;;;17.13;;
56537;SDS011;42435;53.292;6.000;2023-02-07T13:26:16;29.80;;;17.60;;
56537;SDS011;42435;53.292;6.000;2023-02-07T13:29:00;32.22;;;19.17;;
56537;SDS011;42435;53.292;6.000;2023-02-07T13:31:34;32.05;;;19.20;;
56537;SDS011;42435;53.292;6.000;2023-02-07T13:34:03;29.25;;;18.75;;
56537;SDS011;42435;53.292;6.000;2023-02-07T13:36:43;30.25;;;19.13;;
56537;SDS011;42435;53.292;6.000;2023-02-07T13:48:14;29.13;;;17.70;;
56537;SDS011;42435;53.292;6.000;2023-02-07T13:51:11;28.25;;;17.73;;
56537;SDS011;42435;53.292;6.000;2023-02-07T13:53:52;31.17;;;18.20;;
56537;SDS011;42435;53.292;6.000;2023-02-07T13:56:29;26.88;;;17.42;;
56537;SDS011;42435;53.292;6.000;2023-02-07T13:59:34;29.65;;;17.40;;
56537;SDS011;42435;53.292;6.000;2023-02-07T14:02:15;29.33;;;17.27;;
56537;SDS011;42435;53.292;6.000;2023-02-07T14:04:54;31.35;;;18.33;;
56537;SDS011;42435;53.292;6.000;2023-02-07T14:07:22;29.67;;;17.38;;
56537;SDS011;42435;53.292;6.000;2023-02-07T14:09:53;30.35;;;17.52;;
56537;SDS011;42435;53.292;6.000;2023-02-07T14:18:05;30.85;;;18.95;;
56537;SDS011;42435;53.292;6.000;2023-02-07T14:31:50;29.10;;;17.08;;
56537;SDS011;42435;53.292;6.000;2023-02-07T14:34:57;28.98;;;16.63;;
56537;SDS011;42435;53.292;6.000;2023-02-07T14:37:35;31.90;;;17.92;;
56537;SDS011;42435;53.292;6.000;2023-02-07T14:40:26;27.13;;;16.30;;
56537;SDS011;42435;53.292;6.000;2023-02-07T14:43:06;31.17;;;17.00;;
56537;SDS011;42435;53.292;6.000;2023-02-07T14:45:57;29.60;;;15.98;;
56537;SDS011;42435;53.292;6.000;2023-02-07T14:48:35;28.83;;;19.63;;
56537;SDS011;42435;53.292;6.000;2023-02-07T14:51:15;28.52;;;16.85;;
56537;SDS011;42435;53.292;6.000;2023-02-07T14:53:58;30.05;;;18.27;;
56537;SDS011;42435;53.292;6.000;2023-02-07T14:59:32;29.27;;;17.83;;
56537;SDS011;42435;53.292;6.000;2023-02-07T15:04:54;31.90;;;19.30;;
56537;SDS011;42435;53.292;6.000;2023-02-07T15:07:20;30.02;;;18.77;;
56537;SDS011;42435;53.292;6.000;2023-02-07T15:09:45;31.63;;;18.50;;
56537;SDS011;42435;53.292;6.000;2023-02-07T15:12:11;27.80;;;17.65;;
56537;SDS011;42435;53.292;6.000;2023-02-07T15:14:50;31.70;;;19.90;;
56537;SDS011;42435;53.292;6.000;2023-02-07T15:17:20;30.05;;;18.85;;
56537;SDS011;42435;53.292;6.000;2023-02-07T15:19:47;28.75;;;16.55;;
56537;SDS011;42435;53.292;6.000;2023-02-07T15:22:23;27.67;;;16.67;;
56537;SDS011;42435;53.292;6.000;2023-02-07T15:24:53;29.25;;;16.15;;
56537;SDS011;42435;53.292;6.000;2023-02-07T15:27:21;26.33;;;15.40;;
56537;SDS011;42435;53.292;6.000;2023-02-07T15:29:59;27.88;;;17.33;;
56537;SDS011;42435;53.292;6.000;2023-02-07T15:32:40;28.23;;;16.08;;
56537;SDS011;42435;53.292;6.000;2023-02-07T15:35:11;26.83;;;16.92;;
56537;SDS011;42435;53.292;6.000;2023-02-07T15:37:41;27.25;;;16.08;;
56537;SDS011;42435;53.292;6.000;2023-02-07T15:40:09;28.50;;;17.35;;
56537;SDS011;42435;53.292;6.000;2023-02-07T15:42:49;29.55;;;16.88;;
56537;SDS011;42435;53.292;6.000;2023-02-07T15:45:27;30.02;;;17.27;;
56537;SDS011;42435;53.292;6.000;2023-02-07T15:47:58;30.67;;;16.58;;
56537;SDS011;42435;53.292;6.000;2023-02-07T15:50:31;28.80;;;16.98;;
56537;SDS011;42435;53.292;6.000;2023-02-07T15:52:58;27.60;;;17.80;;
56537;SDS011;42435;53.292;6.000;2023-02-07T15:55:42;25.80;;;15.80;;
56537;SDS011;42435;53.292;6.000;2023-02-07T15:58:17;30.90;;;17.13;;
56537;SDS011;42435;53.292;6.000;2023-02-07T16:00:48;28.35;;;15.50;;
56537;SDS011;42435;53.292;6.000;2023-02-07T16:03:20;32.63;;;16.75;;
56537;SDS011;42435;53.292;6.000;2023-02-07T16:06:00;29.13;;;16.98;;
56537;SDS011;42435;53.292;6.000;2023-02-07T16:08:39;25.75;;;16.27;;
56537;SDS011;42435;53.292;6.000;2023-02-07T16:14:21;27.08;;;16.27;;
56537;SDS011;42435;53.292;6.000;2023-02-07T16:16:48;23.67;;;16.45;;
56537;SDS011;42435;53.292;6.000;2023-02-07T16:19:16;30.80;;;16.80;;
56537;SDS011;42435;53.292;6.000;2023-02-07T16:21:51;25.52;;;15.88;;
56537;SDS011;42435;53.292;6.000;2023-02-07T16:24:30;27.85;;;20.40;;
56537;SDS011;42435;53.292;6.000;2023-02-07T16:26:59;26.80;;;17.50;;
56537;SDS011;42435;53.292;6.000;2023-02-07T16:29:24;33.88;;;21.52;;
56537;SDS011;42435;53.292;6.000;2023-02-07T16:31:51;30.52;;;18.95;;
56537;SDS011;42435;53.292;6.000;2023-02-07T16:34:18;31.55;;;20.23;;
56537;SDS011;42435;53.292;6.000;2023-02-07T16:36:51;28.83;;;18.42;;